Aviation Digital Data Service (ADDS)

Output produced by METARs form (0623 UTC 21 January 2019)
found at http://www.aviationweather.gov/metar/data/
 
METAR text: DRRN 210600Z 36005KT 8000 NSC 16/M09 Q1015 TEMPO 4000 DU
Conditions at: DRRN (NIAMEY (CIV/MIL), NE) observed 0600 UTC 21 January 2019
Temperature: 16.0°C (61°F)
Dewpoint: -9.0°C (16°F) [RH = 17%]
Pressure (altimeter): 29.97 inches Hg (1015.0 mb)
Winds: from the N (360 degrees) at 6 MPH (5 knots; 2.6 m/s)
Visibility: 5 miles ( 8 km)
Ceiling: at least 12,000 feet AGL
Clouds: sky clear below 12,000 feet AGL
Weather: no significant weather observed at this time

METAR text: DRRN 210500Z 01004KT 8000 NSC 17/M08 Q1015 NOSIG
Conditions at: DRRN (NIAMEY (CIV/MIL), NE) observed 0500 UTC 21 January 2019
Temperature: 17.0°C (63°F)
Dewpoint: -8.0°C (18°F) [RH = 17%]
Pressure (altimeter): 29.97 inches Hg (1015.0 mb)
Winds: from the N (10 degrees) at 5 MPH (4 knots; 2.1 m/s)
Visibility: 5 miles ( 8 km)
Ceiling: at least 12,000 feet AGL
Clouds: sky clear below 12,000 feet AGL
Weather: no significant weather observed at this time

METAR text: DRRN 210400Z 01004KT 8000 NSC 18/M09 Q1015 NOSIG
Conditions at: DRRN (NIAMEY (CIV/MIL), NE) observed 0400 UTC 21 January 2019
Temperature: 18.0°C (64°F)
Dewpoint: -9.0°C (16°F) [RH = 15%]
Pressure (altimeter): 29.97 inches Hg (1015.0 mb)
Winds: from the N (10 degrees) at 5 MPH (4 knots; 2.1 m/s)
Visibility: 5 miles ( 8 km)
Ceiling: at least 12,000 feet AGL
Clouds: sky clear below 12,000 feet AGL
Weather: no significant weather observed at this time

METAR text: DRRN 210300Z 35005KT 8000 NSC 18/M08 Q1015 NOSIG
Conditions at: DRRN (NIAMEY (CIV/MIL), NE) observed 0300 UTC 21 January 2019
Temperature: 18.0°C (64°F)
Dewpoint: -8.0°C (18°F) [RH = 16%]
Pressure (altimeter): 29.97 inches Hg (1015.0 mb)
Winds: from the N (350 degrees) at 6 MPH (5 knots; 2.6 m/s)
Visibility: 5 miles ( 8 km)
Ceiling: at least 12,000 feet AGL
Clouds: sky clear below 12,000 feet AGL
Weather: no significant weather observed at this time

METAR text: DRRN 210200Z 35004KT 8000 NSC 19/M08 Q1015 NOSIG
Conditions at: DRRN (NIAMEY (CIV/MIL), NE) observed 0200 UTC 21 January 2019
Temperature: 19.0°C (66°F)
Dewpoint: -8.0°C (18°F) [RH = 15%]
Pressure (altimeter): 29.97 inches Hg (1015.0 mb)
Winds: from the N (350 degrees) at 5 MPH (4 knots; 2.1 m/s)
Visibility: 5 miles ( 8 km)
Ceiling: at least 12,000 feet AGL
Clouds: sky clear below 12,000 feet AGL
Weather: no significant weather observed at this time

METAR text: DRRN 210100Z 36005KT 8000 NSC 19/M09 Q1015 NOSIG
Conditions at: DRRN (NIAMEY (CIV/MIL), NE) observed 0100 UTC 21 January 2019
Temperature: 19.0°C (66°F)
Dewpoint: -9.0°C (16°F) [RH = 14%]
Pressure (altimeter): 29.97 inches Hg (1015.0 mb)
Winds: from the N (360 degrees) at 6 MPH (5 knots; 2.6 m/s)
Visibility: 5 miles ( 8 km)
Ceiling: at least 12,000 feet AGL
Clouds: sky clear below 12,000 feet AGL
Weather: no significant weather observed at this time

METAR text: DRRN 210000Z 35005KT 8000 NSC 21/M11 Q1016 NOSIG
Conditions at: DRRN (NIAMEY (CIV/MIL), NE) observed 0000 UTC 21 January 2019
Temperature: 21.0°C (70°F)
Dewpoint: -11.0°C (12°F) [RH = 11%]
Pressure (altimeter): 30.00 inches Hg (1016.0 mb)
Winds: from the N (350 degrees) at 6 MPH (5 knots; 2.6 m/s)
Visibility: 5 miles ( 8 km)
Ceiling: at least 12,000 feet AGL
Clouds: sky clear below 12,000 feet AGL
Weather: no significant weather observed at this time

METAR text: DRRN 202200Z 35005KT 8000 NSC 22/M10 Q1016 NOSIG
Conditions at: DRRN (NIAMEY (CIV/MIL), NE) observed 2200 UTC 20 January 2019
Temperature: 22.0°C (72°F)
Dewpoint: -10.0°C (14°F) [RH = 11%]
Pressure (altimeter): 30.00 inches Hg (1016.0 mb)
Winds: from the N (350 degrees) at 6 MPH (5 knots; 2.6 m/s)
Visibility: 5 miles ( 8 km)
Ceiling: at least 12,000 feet AGL
Clouds: sky clear below 12,000 feet AGL
Weather: no significant weather observed at this time

METAR text: DRRN 202100Z 36005KT 8000 NSC 23/M09 Q1016 NOSIG
Conditions at: DRRN (NIAMEY (CIV/MIL), NE) observed 2100 UTC 20 January 2019
Temperature: 23.0°C (73°F)
Dewpoint: -9.0°C (16°F) [RH = 11%]
Pressure (altimeter): 30.00 inches Hg (1016.0 mb)
Winds: from the N (360 degrees) at 6 MPH (5 knots; 2.6 m/s)
Visibility: 5 miles ( 8 km)
Ceiling: at least 12,000 feet AGL
Clouds: sky clear below 12,000 feet AGL
Weather: no significant weather observed at this time

METAR text: DRRN 202000Z 01004KT 7000 NSC 25/M10 Q1015 NOSIG
Conditions at: DRRN (NIAMEY (CIV/MIL), NE) observed 2000 UTC 20 January 2019
Temperature: 25.0°C (77°F)
Dewpoint: -10.0°C (14°F) [RH =  9%]
Pressure (altimeter): 29.97 inches Hg (1015.0 mb)
Winds: from the N (10 degrees) at 5 MPH (4 knots; 2.1 m/s)
Visibility: 4 miles ( 7 km)
Ceiling: at least 12,000 feet AGL
Clouds: sky clear below 12,000 feet AGL
Weather: no significant weather observed at this time

METAR text: DRRN 201900Z 01004KT 6000 NSC 26/M10 Q1014 TEMPO 4000 DU
Conditions at: DRRN (NIAMEY (CIV/MIL), NE) observed 1900 UTC 20 January 2019
Temperature: 26.0°C (79°F)
Dewpoint: -10.0°C (14°F) [RH =  9%]
Pressure (altimeter): 29.94 inches Hg (1014.0 mb)
Winds: from the N (10 degrees) at 5 MPH (4 knots; 2.1 m/s)
Visibility: 4 miles ( 6 km)
Ceiling: at least 12,000 feet AGL
Clouds: sky clear below 12,000 feet AGL
Weather: no significant weather observed at this time

METAR text: DRRN 201800Z 02005KT 6000 NSC 28/M13 Q1014 TEMPO 4000 DU
Conditions at: DRRN (NIAMEY (CIV/MIL), NE) observed 1800 UTC 20 January 2019
Temperature: 28.0°C (82°F)
Dewpoint: -13.0°C ( 9°F) [RH =  6%]
Pressure (altimeter): 29.94 inches Hg (1014.0 mb)
Winds: from the NNE (20 degrees) at 6 MPH (5 knots; 2.6 m/s)
Visibility: 4 miles ( 6 km)
Ceiling: at least 12,000 feet AGL
Clouds: sky clear below 12,000 feet AGL
Weather: no significant weather observed at this time

METAR text: DRRN 201700Z 02007KT 350V050 8000 NSC 30/M14 Q1013 NOSIG
Conditions at: DRRN (NIAMEY (CIV/MIL), NE) observed 1700 UTC 20 January 2019
Temperature: 30.0°C (86°F)
Dewpoint: -14.0°C ( 7°F) [RH =  5%]
Pressure (altimeter): 29.91 inches Hg (1013.0 mb)
Winds: from the NNE (20 degrees) at 8 MPH (7 knots; 3.6 m/s)
Visibility: 5 miles ( 8 km)
Ceiling: at least 12,000 feet AGL
Clouds: sky clear below 12,000 feet AGL
Weather: no significant weather observed at this time

METAR text: DRRN 201600Z 01007KT 340V050 8000 NSC 31/M13 Q1013 NOSIG
Conditions at: DRRN (NIAMEY (CIV/MIL), NE) observed 1600 UTC 20 January 2019
Temperature: 31.0°C (88°F)
Dewpoint: -13.0°C ( 9°F) [RH =  5%]
Pressure (altimeter): 29.91 inches Hg (1013.0 mb)
Winds: from the N (10 degrees) at 8 MPH (7 knots; 3.6 m/s)
Visibility: 5 miles ( 8 km)
Ceiling: at least 12,000 feet AGL
Clouds: sky clear below 12,000 feet AGL
Weather: no significant weather observed at this time

METAR text: DRRN 201500Z 01009KT 340V040 8000 NSC 31/M13 Q1013 NOSIG
Conditions at: DRRN (NIAMEY (CIV/MIL), NE) observed 1500 UTC 20 January 2019
Temperature: 31.0°C (88°F)
Dewpoint: -13.0°C ( 9°F) [RH =  5%]
Pressure (altimeter): 29.91 inches Hg (1013.0 mb)
Winds: from the N (10 degrees) at 10 MPH (9 knots; 4.6 m/s)
Visibility: 5 miles ( 8 km)
Ceiling: at least 12,000 feet AGL
Clouds: sky clear below 12,000 feet AGL
Weather: no significant weather observed at this time

METAR text: DRRN 201400Z 03008KT 340V060 8000 NSC 30/M11 Q1014 NOSIG
Conditions at: DRRN (NIAMEY (CIV/MIL), NE) observed 1400 UTC 20 January 2019
Temperature: 30.0°C (86°F)
Dewpoint: -11.0°C (12°F) [RH =  6%]
Pressure (altimeter): 29.94 inches Hg (1014.0 mb)
Winds: from the NNE (30 degrees) at 9 MPH (8 knots; 4.1 m/s)
Visibility: 5 miles ( 8 km)
Ceiling: at least 12,000 feet AGL
Clouds: sky clear below 12,000 feet AGL
Weather: no significant weather observed at this time

METAR text: DRRN 201200Z 03012KT 360V060 8000 NSC 29/M12 Q1015 NOSIG
Conditions at: DRRN (NIAMEY (CIV/MIL), NE) observed 1200 UTC 20 January 2019
Temperature: 29.0°C (84°F)
Dewpoint: -12.0°C (10°F) [RH =  6%]
Pressure (altimeter): 29.97 inches Hg (1015.0 mb)
Winds: from the NNE (30 degrees) at 14 MPH (12 knots; 6.2 m/s)
Visibility: 5 miles ( 8 km)
Ceiling: at least 12,000 feet AGL
Clouds: sky clear below 12,000 feet AGL
Weather: no significant weather observed at this time

METAR text: DRRN 201100Z 05013KT 010V070 8000 NSC 27/M14 Q1016 NOSIG
Conditions at: DRRN (NIAMEY (CIV/MIL), NE) observed 1100 UTC 20 January 2019
Temperature: 27.0°C (81°F)
Dewpoint: -14.0°C ( 7°F) [RH =  6%]
Pressure (altimeter): 30.00 inches Hg (1016.0 mb)
Winds: from the NE (50 degrees) at 15 MPH (13 knots; 6.7 m/s)
Visibility: 5 miles ( 8 km)
Ceiling: at least 12,000 feet AGL
Clouds: sky clear below 12,000 feet AGL
Weather: no significant weather observed at this time

METAR text: DRRN 201000Z 04015KT 8000 NSC 25/M13 Q1017 NOSIG
Conditions at: DRRN (NIAMEY (CIV/MIL), NE) observed 1000 UTC 20 January 2019
Temperature: 25.0°C (77°F)
Dewpoint: -13.0°C ( 9°F) [RH =  7%]
Pressure (altimeter): 30.03 inches Hg (1017.0 mb)
Winds: from the NE (40 degrees) at 17 MPH (15 knots; 7.7 m/s)
Visibility: 5 miles ( 8 km)
Ceiling: at least 12,000 feet AGL
Clouds: sky clear below 12,000 feet AGL
Weather: no significant weather observed at this time

METAR text: DRRN 200900Z 04012KT 8000 NSC 24/M12 Q1017 NOSIG
Conditions at: DRRN (NIAMEY (CIV/MIL), NE) observed 0900 UTC 20 January 2019
Temperature: 24.0°C (75°F)
Dewpoint: -12.0°C (10°F) [RH =  8%]
Pressure (altimeter): 30.03 inches Hg (1017.0 mb)
Winds: from the NE (40 degrees) at 14 MPH (12 knots; 6.2 m/s)
Visibility: 5 miles ( 8 km)
Ceiling: at least 12,000 feet AGL
Clouds: sky clear below 12,000 feet AGL
Weather: no significant weather observed at this time

METAR text: DRRN 200800Z 02006KT 8000 NSC 20/M10 Q1016 NOSIG
Conditions at: DRRN (NIAMEY (CIV/MIL), NE) observed 0800 UTC 20 January 2019
Temperature: 20.0°C (68°F)
Dewpoint: -10.0°C (14°F) [RH = 12%]
Pressure (altimeter): 30.00 inches Hg (1016.0 mb)
Winds: from the NNE (20 degrees) at 7 MPH (6 knots; 3.1 m/s)
Visibility: 5 miles ( 8 km)
Ceiling: at least 12,000 feet AGL
Clouds: sky clear below 12,000 feet AGL
Weather: no significant weather observed at this time

METAR text: DRRN 200700Z 35006KT 8000 NSC 19/M10 Q1016 TEMPO 4000 DU
Conditions at: DRRN (NIAMEY (CIV/MIL), NE) observed 0700 UTC 20 January 2019
Temperature: 19.0°C (66°F)
Dewpoint: -10.0°C (14°F) [RH = 13%]
Pressure (altimeter): 30.00 inches Hg (1016.0 mb)
Winds: from the N (350 degrees) at 7 MPH (6 knots; 3.1 m/s)
Visibility: 5 miles ( 8 km)
Ceiling: at least 12,000 feet AGL
Clouds: sky clear below 12,000 feet AGL
Weather: no significant weather observed at this time

METAR text: DRRN 200600Z 35007KT CAVOK 18/M09 Q1015 NOSIG
Conditions at: DRRN (NIAMEY (CIV/MIL), NE) observed 0600 UTC 20 January 2019
Temperature: 18.0°C (64°F)
Dewpoint: -9.0°C (16°F) [RH = 15%]
Pressure (altimeter): 29.97 inches Hg (1015.0 mb)
Winds: from the N (350 degrees) at 8 MPH (7 knots; 3.6 m/s)
Visibility: 6 or more miles (10+ km)
Ceiling: ceiling and visibility are OK
Clouds: unknown
Weather: no significant weather observed at this time

METAR text: DRRN 200500Z 36006KT CAVOK 19/M09 Q1014 NOSIG
Conditions at: DRRN (NIAMEY (CIV/MIL), NE) observed 0500 UTC 20 January 2019
Temperature: 19.0°C (66°F)
Dewpoint: -9.0°C (16°F) [RH = 14%]
Pressure (altimeter): 29.94 inches Hg (1014.0 mb)
Winds: from the N (360 degrees) at 7 MPH (6 knots; 3.1 m/s)
Visibility: 6 or more miles (10+ km)
Ceiling: ceiling and visibility are OK
Clouds: unknown
Weather: no significant weather observed at this time

METAR text: DRRN 200400Z 36005KT CAVOK 20/M10 Q1014 NOSIG
Conditions at: DRRN (NIAMEY (CIV/MIL), NE) observed 0400 UTC 20 January 2019
Temperature: 20.0°C (68°F)
Dewpoint: -10.0°C (14°F) [RH = 12%]
Pressure (altimeter): 29.94 inches Hg (1014.0 mb)
Winds: from the N (360 degrees) at 6 MPH (5 knots; 2.6 m/s)
Visibility: 6 or more miles (10+ km)
Ceiling: ceiling and visibility are OK
Clouds: unknown
Weather: no significant weather observed at this time

METAR text: DRRN 200300Z 34006KT CAVOK 21/M10 Q1014 NOSIG
Conditions at: DRRN (NIAMEY (CIV/MIL), NE) observed 0300 UTC 20 January 2019
Temperature: 21.0°C (70°F)
Dewpoint: -10.0°C (14°F) [RH = 12%]
Pressure (altimeter): 29.94 inches Hg (1014.0 mb)
Winds: from the NNW (340 degrees) at 7 MPH (6 knots; 3.1 m/s)
Visibility: 6 or more miles (10+ km)
Ceiling: ceiling and visibility are OK
Clouds: unknown
Weather: no significant weather observed at this time

METAR text: DRRN 200200Z 36006KT CAVOK 22/M10 Q1014 NOSIG
Conditions at: DRRN (NIAMEY (CIV/MIL), NE) observed 0200 UTC 20 January 2019
Temperature: 22.0°C (72°F)
Dewpoint: -10.0°C (14°F) [RH = 11%]
Pressure (altimeter): 29.94 inches Hg (1014.0 mb)
Winds: from the N (360 degrees) at 7 MPH (6 knots; 3.1 m/s)
Visibility: 6 or more miles (10+ km)
Ceiling: ceiling and visibility are OK
Clouds: unknown
Weather: no significant weather observed at this time

METAR text: DRRN 200100Z 35005KT CAVOK 22/M10 Q1015 NOSIG
Conditions at: DRRN (NIAMEY (CIV/MIL), NE) observed 0100 UTC 20 January 2019
Temperature: 22.0°C (72°F)
Dewpoint: -10.0°C (14°F) [RH = 11%]
Pressure (altimeter): 29.97 inches Hg (1015.0 mb)
Winds: from the N (350 degrees) at 6 MPH (5 knots; 2.6 m/s)
Visibility: 6 or more miles (10+ km)
Ceiling: ceiling and visibility are OK
Clouds: unknown
Weather: no significant weather observed at this time

METAR text: DRRN 200000Z 35005KT CAVOK 23/M10 Q1015 NOSIG
Conditions at: DRRN (NIAMEY (CIV/MIL), NE) observed 0000 UTC 20 January 2019
Temperature: 23.0°C (73°F)
Dewpoint: -10.0°C (14°F) [RH = 10%]
Pressure (altimeter): 29.97 inches Hg (1015.0 mb)
Winds: from the N (350 degrees) at 6 MPH (5 knots; 2.6 m/s)
Visibility: 6 or more miles (10+ km)
Ceiling: ceiling and visibility are OK
Clouds: unknown
Weather: no significant weather observed at this time

METAR text: DRRN 192300Z 35007KT CAVOK 24/M11 Q1015 NOSIG
Conditions at: DRRN (NIAMEY (CIV/MIL), NE) observed 2300 UTC 19 January 2019
Temperature: 24.0°C (75°F)
Dewpoint: -11.0°C (12°F) [RH =  9%]
Pressure (altimeter): 29.97 inches Hg (1015.0 mb)
Winds: from the N (350 degrees) at 8 MPH (7 knots; 3.6 m/s)
Visibility: 6 or more miles (10+ km)
Ceiling: ceiling and visibility are OK
Clouds: unknown
Weather: no significant weather observed at this time

METAR text: DRRN 192200Z 35005KT CAVOK 25/M10 Q1015 NOSIG
Conditions at: DRRN (NIAMEY (CIV/MIL), NE) observed 2200 UTC 19 January 2019
Temperature: 25.0°C (77°F)
Dewpoint: -10.0°C (14°F) [RH =  9%]
Pressure (altimeter): 29.97 inches Hg (1015.0 mb)
Winds: from the N (350 degrees) at 6 MPH (5 knots; 2.6 m/s)
Visibility: 6 or more miles (10+ km)
Ceiling: ceiling and visibility are OK
Clouds: unknown
Weather: no significant weather observed at this time

METAR text: DRRN 192100Z 35006KT 8000 NSC 27/M10 Q1015 NOSIG
Conditions at: DRRN (NIAMEY (CIV/MIL), NE) observed 2100 UTC 19 January 2019
Temperature: 27.0°C (81°F)
Dewpoint: -10.0°C (14°F) [RH =  8%]
Pressure (altimeter): 29.97 inches Hg (1015.0 mb)
Winds: from the N (350 degrees) at 7 MPH (6 knots; 3.1 m/s)
Visibility: 5 miles ( 8 km)
Ceiling: at least 12,000 feet AGL
Clouds: sky clear below 12,000 feet AGL
Weather: no significant weather observed at this time

METAR text: DRRN 192000Z 35006KT 8000 NSC 27/M11 Q1014 NOSIG
Conditions at: DRRN (NIAMEY (CIV/MIL), NE) observed 2000 UTC 19 January 2019
Temperature: 27.0°C (81°F)
Dewpoint: -11.0°C (12°F) [RH =  7%]
Pressure (altimeter): 29.94 inches Hg (1014.0 mb)
Winds: from the N (350 degrees) at 7 MPH (6 knots; 3.1 m/s)
Visibility: 5 miles ( 8 km)
Ceiling: at least 12,000 feet AGL
Clouds: sky clear below 12,000 feet AGL
Weather: no significant weather observed at this time

METAR text: DRRN 191900Z 35007KT 8000 NSC 29/M12 Q1014 NOSIG
Conditions at: DRRN (NIAMEY (CIV/MIL), NE) observed 1900 UTC 19 January 2019
Temperature: 29.0°C (84°F)
Dewpoint: -12.0°C (10°F) [RH =  6%]
Pressure (altimeter): 29.94 inches Hg (1014.0 mb)
Winds: from the N (350 degrees) at 8 MPH (7 knots; 3.6 m/s)
Visibility: 5 miles ( 8 km)
Ceiling: at least 12,000 feet AGL
Clouds: sky clear below 12,000 feet AGL
Weather: no significant weather observed at this time

Forecast for: DRRN (NIAMEY (CIV/MIL), NE)
Text: TAF DRRN 210500Z 2106/2212 02010KT 8000 NSC
Forecast period: 0600 UTC 21 January 2019 to 1200 UTC 22 January 2019
Forecast type: FROM: standard forecast or significant change
Winds: from the NNE (20 degrees) at 12 MPH (10 knots; 5.1 m/s)
Visibility: 5 miles (8 km)
Ceiling: unknown
Clouds: missing
Weather: no significant weather forecast for this period
Text: TEMPO 2106/2110 3500 DU
Forecast period: 0600 to 1000 UTC 21 January 2019
Forecast type: TEMPORARY: The following changes expected for less than half the time period
Visibility: 2.17 miles (3.49 km)
Ceiling: unknown
Clouds: missing
Weather: DU  (widespread dust)
Text: TEMPO 2117/2120 4000 DU
Forecast period: 1700 to 2000 UTC 21 January 2019
Forecast type: TEMPORARY: The following changes expected for less than half the time period
Visibility: 2.49 miles (4.01 km)
Ceiling: unknown
Clouds: missing
Weather: DU  (widespread dust)